Time,TemperatureF,DewpointF,PressureIn,WindDirection,WindDirectionDegrees,WindSpeedMPH,WindSpeedGustMPH,Humidity,HourlyPrecipIn,Conditions,Clouds,dailyrainin,SoftwareType,DateUTC
2013-09-04 00:03:00,57.9,55.6,29.64,South,180,0.0,0.0,92,0.00,,,0.00,WUHU216HW,2013-09-04 07:03:00,
2013-09-04 00:08:00,57.9,55.6,29.64,South,180,0.0,0.0,92,0.00,,,0.00,WUHU216HW,2013-09-04 07:08:00,
2013-09-04 00:13:00,57.9,55.6,29.64,South,180,0.0,0.0,92,0.00,,,0.00,WUHU216HW,2013-09-04 07:13:00,
2013-09-04 00:18:00,57.9,55.6,29.64,South,180,0.0,0.0,92,0.00,,,0.00,WUHU216HW,2013-09-04 07:18:00,
2013-09-04 00:23:00,57.9,55.6,29.65,South,180,0.0,0.0,92,0.00,,,0.00,WUHU216HW,2013-09-04 07:23:00,
2013-09-04 00:28:00,57.9,55.6,29.65,South,180,0.0,0.0,92,0.00,,,0.00,WUHU216HW,2013-09-04 07:28:00,
2013-09-04 00:33:00,57.9,55.6,29.65,South,180,0.0,0.0,92,0.00,,,0.00,WUHU216HW,2013-09-04 07:33:00,
2013-09-04 00:38:00,57.9,55.6,29.64,South,180,0.0,0.0,92,0.00,,,0.00,WUHU216HW,2013-09-04 07:38:00,
2013-09-04 00:43:00,57.9,55.6,29.64,South,180,0.0,0.0,92,0.00,,,0.00,WUHU216HW,2013-09-04 07:43:00,
2013-09-04 00:48:00,57.9,55.6,29.64,South,180,0.0,0.0,92,0.00,,,0.00,WUHU216HW,2013-09-04 07:48:00,
2013-09-04 00:53:00,57.9,55.6,29.64,South,180,0.0,0.0,92,0.00,,,0.00,WUHU216HW,2013-09-04 07:53:00,
2013-09-04 00:58:00,57.9,55.6,29.64,South,180,0.0,0.0,92,0.00,,,0.00,WUHU216HW,2013-09-04 07:58:00,
2013-09-04 01:03:00,57.9,55.6,29.64,South,180,0.0,0.0,92,0.00,,,0.00,WUHU216HW,2013-09-04 08:03:00,
2013-09-04 01:08:00,57.9,55.6,29.64,South,180,0.0,0.0,92,0.00,,,0.00,WUHU216HW,2013-09-04 08:08:00,
2013-09-04 01:13:00,57.9,55.6,29.64,South,180,0.0,0.0,92,0.00,,,0.00,WUHU216HW,2013-09-04 08:13:00,
2013-09-04 01:18:00,57.9,55.6,29.63,South,180,0.0,0.0,92,0.00,,,0.00,WUHU216HW,2013-09-04 08:18:00,
2013-09-04 01:23:00,57.9,55.6,29.63,South,180,0.0,0.0,92,0.00,,,0.00,WUHU216HW,2013-09-04 08:23:00,
2013-09-04 01:28:00,57.9,55.6,29.64,South,180,0.0,0.0,92,0.00,,,0.00,WUHU216HW,2013-09-04 08:28:00,
2013-09-04 01:33:00,57.9,55.6,29.64,South,180,0.0,0.0,92,0.00,,,0.00,WUHU216HW,2013-09-04 08:33:00,
2013-09-04 01:38:00,57.9,55.6,29.63,South,180,0.0,0.0,92,0.00,,,0.00,WUHU216HW,2013-09-04 08:38:00,
2013-09-04 01:43:00,57.9,55.6,29.63,South,180,0.0,0.0,92,0.00,,,0.00,WUHU216HW,2013-09-04 08:43:00,
2013-09-04 01:48:00,57.9,55.6,29.63,South,180,0.0,0.0,92,0.00,,,0.00,WUHU216HW,2013-09-04 08:48:00,
2013-09-04 01:53:00,57.7,55.4,29.63,South,180,0.0,0.0,92,0.00,,,0.00,WUHU216HW,2013-09-04 08:53:00,
2013-09-04 01:58:00,57.7,55.4,29.64,South,180,0.0,0.0,92,0.00,,,0.00,WUHU216HW,2013-09-04 08:58:00,
2013-09-04 02:03:00,57.9,55.6,29.64,South,180,0.0,0.0,92,0.00,,,0.00,WUHU216HW,2013-09-04 09:03:00,
2013-09-04 02:08:00,57.9,55.6,29.64,South,180,0.0,0.0,92,0.00,,,0.00,WUHU216HW,2013-09-04 09:08:00,
2013-09-04 02:13:00,57.9,55.6,29.64,South,180,0.0,0.0,92,0.00,,,0.00,WUHU216HW,2013-09-04 09:13:00,
2013-09-04 02:18:00,57.9,55.6,29.63,South,180,0.0,0.0,92,0.00,,,0.00,WUHU216HW,2013-09-04 09:18:00,
2013-09-04 02:23:00,57.9,55.6,29.63,South,180,0.0,0.0,92,0.00,,,0.00,WUHU216HW,2013-09-04 09:23:00,
2013-09-04 02:28:00,57.9,55.6,29.63,South,180,0.0,0.0,92,0.00,,,0.00,WUHU216HW,2013-09-04 09:28:00,
2013-09-04 02:33:00,57.9,55.6,29.63,South,180,0.0,0.0,92,0.00,,,0.00,WUHU216HW,2013-09-04 09:33:00,
2013-09-04 02:38:00,57.9,55.6,29.63,South,180,0.0,0.0,92,0.00,,,0.00,WUHU216HW,2013-09-04 09:38:00,
2013-09-04 02:43:00,58.1,55.7,29.64,South,180,0.0,0.0,92,0.00,,,0.00,WUHU216HW,2013-09-04 09:43:00,
2013-09-04 02:48:00,58.1,55.7,29.64,South,180,0.0,0.0,92,0.00,,,0.00,WUHU216HW,2013-09-04 09:48:00,
2013-09-04 02:53:00,58.1,55.7,29.63,South,180,0.0,0.0,92,0.00,,,0.00,WUHU216HW,2013-09-04 09:53:00,
2013-09-04 02:58:00,58.1,55.7,29.62,South,180,0.0,0.0,92,0.00,,,0.00,WUHU216HW,2013-09-04 09:58:00,
2013-09-04 03:03:00,58.2,55.9,29.62,South,180,0.0,0.0,92,0.00,,,0.00,WUHU216HW,2013-09-04 10:03:00,
2013-09-04 03:11:00,58.1,55.7,29.63,South,180,0.0,0.0,92,0.00,,,0.00,WUHU216HW,2013-09-04 10:11:00,
2013-09-04 03:16:00,58.2,56.2,29.63,South,180,0.0,0.0,93,0.00,,,0.00,WUHU216HW,2013-09-04 10:16:00,
2013-09-04 03:21:00,58.1,56.0,29.64,South,180,0.0,0.0,93,0.00,,,0.00,WUHU216HW,2013-09-04 10:21:00,
2013-09-04 03:26:00,58.1,56.0,29.64,South,180,0.0,0.0,93,0.00,,,0.00,WUHU216HW,2013-09-04 10:26:00,
2013-09-04 03:31:00,57.9,55.9,29.63,North,0,0.0,0.0,93,0.00,,,0.00,WUHU216HW,2013-09-04 10:31:00,
2013-09-04 03:36:00,57.9,55.9,29.63,NNE,23,0.0,0.0,93,0.00,,,0.00,WUHU216HW,2013-09-04 10:36:00,
2013-09-04 03:41:00,57.9,55.9,29.63,North,0,0.0,0.0,93,0.00,,,0.00,WUHU216HW,2013-09-04 10:41:00,
2013-09-04 03:46:00,57.9,55.9,29.62,North,0,0.0,0.0,93,0.00,,,0.00,WUHU216HW,2013-09-04 10:46:00,
2013-09-04 03:51:00,57.9,55.9,29.63,North,0,0.0,0.0,93,0.00,,,0.00,WUHU216HW,2013-09-04 10:51:00,
2013-09-04 03:56:00,57.9,55.9,29.63,North,0,0.0,0.0,93,0.00,,,0.00,WUHU216HW,2013-09-04 10:56:00,
2013-09-04 04:01:00,57.9,55.9,29.62,North,0,0.0,0.0,93,0.00,,,0.00,WUHU216HW,2013-09-04 11:01:00,
2013-09-04 04:06:00,57.9,55.9,29.62,North,0,0.0,0.0,93,0.00,,,0.00,WUHU216HW,2013-09-04 11:06:00,
2013-09-04 04:11:00,57.9,55.9,29.62,North,0,0.0,0.0,93,0.00,,,0.00,WUHU216HW,2013-09-04 11:11:00,
2013-09-04 04:16:00,57.9,55.9,29.62,North,0,0.0,0.0,93,0.00,,,0.00,WUHU216HW,2013-09-04 11:16:00,
2013-09-04 04:21:00,57.7,55.7,29.62,North,0,0.0,0.0,93,0.00,,,0.00,WUHU216HW,2013-09-04 11:21:00,
2013-09-04 04:26:00,57.9,55.9,29.62,North,0,0.0,0.0,93,0.00,,,0.00,WUHU216HW,2013-09-04 11:26:00,
2013-09-04 04:31:00,57.9,55.9,29.62,North,0,0.0,0.0,93,0.00,,,0.00,WUHU216HW,2013-09-04 11:31:00,
2013-09-04 04:36:00,57.9,55.9,29.62,North,0,0.0,0.0,93,0.00,,,0.00,WUHU216HW,2013-09-04 11:36:00,
2013-09-04 04:41:00,57.9,55.9,29.62,North,0,0.0,0.0,93,0.00,,,0.00,WUHU216HW,2013-09-04 11:41:00,
2013-09-04 04:46:00,57.9,55.9,29.62,North,0,0.0,0.0,93,0.00,,,0.00,WUHU216HW,2013-09-04 11:46:00,
2013-09-04 04:51:00,57.9,55.9,29.63,North,0,0.0,0.0,93,0.00,,,0.00,WUHU216HW,2013-09-04 11:51:00,
2013-09-04 04:56:00,57.7,55.7,29.62,North,0,0.0,0.0,93,0.00,,,0.00,WUHU216HW,2013-09-04 11:56:00,
2013-09-04 05:01:00,57.7,55.7,29.62,North,0,0.0,0.0,93,0.00,,,0.00,WUHU216HW,2013-09-04 12:01:00,
2013-09-04 05:06:00,57.7,55.7,29.62,North,0,0.0,0.0,93,0.00,,,0.00,WUHU216HW,2013-09-04 12:06:00,
2013-09-04 05:11:00,57.5,55.5,29.62,North,0,0.0,0.0,93,0.00,,,0.00,WUHU216HW,2013-09-04 12:11:00,
2013-09-04 05:16:00,57.5,55.5,29.62,North,0,0.0,0.0,93,0.00,,,0.00,WUHU216HW,2013-09-04 12:16:00,
2013-09-04 05:21:00,57.3,55.0,29.62,North,0,0.0,0.0,92,0.00,,,0.00,WUHU216HW,2013-09-04 12:21:00,
2013-09-04 05:26:00,57.3,55.0,29.62,North,0,0.0,0.0,92,0.00,,,0.00,WUHU216HW,2013-09-04 12:26:00,
2013-09-04 05:31:00,57.0,54.7,29.62,North,0,0.0,0.0,92,0.00,,,0.00,WUHU216HW,2013-09-04 12:31:00,
2013-09-04 05:36:00,57.0,54.7,29.61,North,0,0.0,0.0,92,0.00,,,0.00,WUHU216HW,2013-09-04 12:36:00,
2013-09-04 05:41:00,56.8,54.5,29.61,North,0,0.0,0.0,92,0.00,,,0.00,WUHU216HW,2013-09-04 12:41:00,
2013-09-04 05:46:00,56.6,54.3,29.61,North,0,0.0,0.0,92,0.00,,,0.00,WUHU216HW,2013-09-04 12:46:00,
2013-09-04 05:51:00,56.4,54.1,29.61,North,0,0.0,0.0,92,0.00,,,0.00,WUHU216HW,2013-09-04 12:51:00,
2013-09-04 05:56:00,56.4,54.1,29.61,North,0,0.0,0.0,92,0.00,,,0.00,WUHU216HW,2013-09-04 12:56:00,
2013-09-04 06:01:00,56.1,53.8,29.61,North,0,0.0,0.0,92,0.00,,,0.00,WUHU216HW,2013-09-04 13:01:00,
2013-09-04 06:06:00,56.1,53.8,29.61,North,0,0.0,0.0,92,0.00,,,0.00,WUHU216HW,2013-09-04 13:06:00,
2013-09-04 06:11:00,56.1,53.8,29.61,North,0,0.0,0.0,92,0.00,,,0.00,WUHU216HW,2013-09-04 13:11:00,
2013-09-04 06:16:00,55.9,53.6,29.61,North,0,0.0,0.0,92,0.00,,,0.00,WUHU216HW,2013-09-04 13:16:00,
2013-09-04 06:21:00,55.9,53.6,29.61,North,0,0.0,0.0,92,0.00,,,0.00,WUHU216HW,2013-09-04 13:21:00,
2013-09-04 06:26:00,55.7,53.4,29.62,North,0,0.0,0.0,92,0.00,,,0.00,WUHU216HW,2013-09-04 13:26:00,
2013-09-04 06:31:00,55.5,53.2,29.62,North,0,0.0,0.0,92,0.00,,,0.00,WUHU216HW,2013-09-04 13:31:00,
2013-09-04 06:36:00,55.4,53.0,29.62,North,0,0.0,0.0,92,0.00,,,0.00,WUHU216HW,2013-09-04 13:36:00,
2013-09-04 06:41:00,55.2,52.9,29.62,North,0,0.0,0.0,92,0.00,,,0.00,WUHU216HW,2013-09-04 13:41:00,
2013-09-04 06:46:00,55.2,52.9,29.62,North,0,0.0,0.0,92,0.00,,,0.00,WUHU216HW,2013-09-04 13:46:00,
2013-09-04 06:51:00,55.2,52.9,29.62,North,0,0.0,0.0,92,0.00,,,0.00,WUHU216HW,2013-09-04 13:51:00,
2013-09-04 06:56:00,55.2,52.9,29.62,North,0,0.0,0.0,92,0.00,,,0.00,WUHU216HW,2013-09-04 13:56:00,
2013-09-04 07:01:00,55.2,52.9,29.63,North,0,0.0,0.0,92,0.00,,,0.00,WUHU216HW,2013-09-04 14:01:00,
2013-09-04 07:06:00,55.2,52.9,29.63,North,0,0.0,0.0,92,0.00,,,0.00,WUHU216HW,2013-09-04 14:06:00,
2013-09-04 07:11:00,55.2,52.9,29.63,North,0,0.0,0.0,92,0.00,,,0.00,WUHU216HW,2013-09-04 14:11:00,
2013-09-04 07:16:00,55.2,52.9,29.63,North,0,0.0,0.0,92,0.00,,,0.00,WUHU216HW,2013-09-04 14:16:00,
2013-09-04 07:21:00,55.2,52.9,29.64,North,0,0.0,0.0,92,0.00,,,0.00,WUHU216HW,2013-09-04 14:21:00,
2013-09-04 07:26:00,55.4,53.3,29.63,North,0,0.0,0.0,93,0.00,,,0.00,WUHU216HW,2013-09-04 14:26:00,
2013-09-04 07:32:00,55.5,53.5,29.64,North,0,0.0,0.0,93,0.00,,,0.00,WUHU216HW,2013-09-04 14:32:00,
2013-09-04 07:37:00,55.7,53.4,29.64,North,0,0.0,0.0,92,0.00,,,0.00,WUHU216HW,2013-09-04 14:37:00,
2013-09-04 07:42:00,55.7,53.4,29.64,North,0,0.0,0.0,92,0.00,,,0.00,WUHU216HW,2013-09-04 14:42:00,
2013-09-04 07:47:00,55.9,53.6,29.64,North,0,0.0,0.0,92,0.00,,,0.00,WUHU216HW,2013-09-04 14:47:00,
2013-09-04 07:52:00,55.9,53.9,29.64,North,0,0.0,0.0,93,0.00,,,0.00,WUHU216HW,2013-09-04 14:52:00,
2013-09-04 07:57:00,56.1,54.1,29.64,North,0,0.0,0.0,93,0.00,,,0.00,WUHU216HW,2013-09-04 14:57:00,
2013-09-04 08:02:00,56.1,54.1,29.64,North,0,0.0,0.0,93,0.00,,,0.00,WUHU216HW,2013-09-04 15:02:00,
2013-09-04 08:07:00,56.3,54.2,29.64,North,0,0.0,0.0,93,0.00,,,0.00,WUHU216HW,2013-09-04 15:07:00,
2013-09-04 08:12:00,56.3,54.2,29.64,North,0,0.0,0.0,93,0.00,,,0.00,WUHU216HW,2013-09-04 15:12:00,
2013-09-04 08:17:00,56.4,54.1,29.64,North,0,0.0,0.0,92,0.00,,,0.00,WUHU216HW,2013-09-04 15:17:00,
2013-09-04 08:22:00,56.8,54.5,29.64,North,0,0.0,0.0,92,0.00,,,0.00,WUHU216HW,2013-09-04 15:22:00,
2013-09-04 08:27:00,56.8,54.5,29.64,North,0,0.0,0.0,92,0.00,,,0.00,WUHU216HW,2013-09-04 15:27:00,
2013-09-04 08:32:00,57.0,54.7,29.64,North,0,0.0,0.0,92,0.00,,,0.00,WUHU216HW,2013-09-04 15:32:00,
2013-09-04 08:37:00,57.0,54.7,29.64,North,0,0.0,0.0,92,0.00,,,0.00,WUHU216HW,2013-09-04 15:37:00,
2013-09-04 08:42:00,57.3,55.0,29.64,North,0,0.0,0.0,92,0.00,,,0.00,WUHU216HW,2013-09-04 15:42:00,
2013-09-04 08:47:00,57.5,55.2,29.64,North,0,0.0,0.0,92,0.00,,,0.00,WUHU216HW,2013-09-04 15:47:00,
2013-09-04 08:52:00,57.9,55.6,29.64,North,0,0.0,0.0,92,0.00,,,0.00,WUHU216HW,2013-09-04 15:52:00,
2013-09-04 08:57:00,58.1,55.7,29.64,North,0,0.0,0.0,92,0.00,,,0.00,WUHU216HW,2013-09-04 15:57:00,
2013-09-04 09:02:00,58.8,56.2,29.64,North,0,0.0,0.0,91,0.00,,,0.00,WUHU216HW,2013-09-04 16:02:00,
2013-09-04 09:07:00,58.8,56.2,29.64,North,0,0.0,0.0,91,0.00,,,0.00,WUHU216HW,2013-09-04 16:07:00,
2013-09-04 09:12:00,59.1,56.5,29.64,North,0,0.0,0.0,91,0.00,,,0.00,WUHU216HW,2013-09-04 16:12:00,
2013-09-04 09:17:00,59.5,56.9,29.64,North,0,0.0,0.0,91,0.00,,,0.00,WUHU216HW,2013-09-04 16:17:00,
2013-09-04 09:22:00,59.5,56.9,29.64,North,0,0.0,0.0,91,0.00,,,0.00,WUHU216HW,2013-09-04 16:22:00,
2013-09-04 09:27:00,60.0,57.2,29.64,North,0,0.0,0.0,90,0.00,,,0.00,WUHU216HW,2013-09-04 16:27:00,
2013-09-04 09:32:00,60.4,57.5,29.64,SSE,158,0.0,0.0,90,0.00,,,0.00,WUHU216HW,2013-09-04 16:32:00,
2013-09-04 09:37:00,60.6,57.4,29.64,South,180,0.0,0.0,89,0.00,,,0.00,WUHU216HW,2013-09-04 16:37:00,
2013-09-04 09:42:00,60.9,57.7,29.64,South,180,0.0,0.0,89,0.00,,,0.00,WUHU216HW,2013-09-04 16:42:00,
2013-09-04 09:47:00,61.3,57.7,29.64,South,180,0.0,0.0,88,0.00,,,0.00,WUHU216HW,2013-09-04 16:47:00,
2013-09-04 09:52:00,61.3,57.7,29.63,South,180,0.0,0.0,88,0.00,,,0.00,WUHU216HW,2013-09-04 16:52:00,
2013-09-04 09:57:00,61.3,57.7,29.63,South,180,0.0,0.0,88,0.00,,,0.00,WUHU216HW,2013-09-04 16:57:00,
2013-09-04 10:02:00,61.3,57.7,29.63,South,180,0.0,0.0,88,0.00,,,0.00,WUHU216HW,2013-09-04 17:02:00,
2013-09-04 10:07:00,61.7,57.4,29.64,South,180,0.0,0.0,87,0.00,,,0.00,WUHU216HW,2013-09-04 17:07:00,
2013-09-04 10:12:00,62.2,58.3,29.64,South,180,0.0,0.0,87,0.00,,,0.00,WUHU216HW,2013-09-04 17:12:00,
2013-09-04 10:17:00,62.7,58.8,29.63,South,180,0.0,0.0,87,0.00,,,0.00,WUHU216HW,2013-09-04 17:17:00,
2013-09-04 10:22:00,63.6,59.7,29.64,SW,225,0.0,0.0,87,0.00,,,0.00,WUHU216HW,2013-09-04 17:22:00,
2013-09-04 10:27:00,64.2,59.9,29.63,North,0,0.0,0.0,86,0.00,,,0.00,WUHU216HW,2013-09-04 17:27:00,
2013-09-04 10:32:00,64.5,59.9,29.63,NNW,338,0.0,0.0,85,0.00,,,0.00,WUHU216HW,2013-09-04 17:32:00,
2013-09-04 10:37:00,66.3,61.3,29.63,NNW,338,0.0,0.0,84,0.00,,,0.00,WUHU216HW,2013-09-04 17:37:00,
2013-09-04 10:42:00,67.2,61.9,29.63,NW,315,0.0,0.0,83,0.00,,,0.00,WUHU216HW,2013-09-04 17:42:00,
2013-09-04 10:47:00,68.3,62.3,29.63,SW,225,0.0,0.0,81,0.00,,,0.00,WUHU216HW,2013-09-04 17:47:00,
2013-09-04 10:52:00,69.6,62.7,29.63,SSW,203,0.0,0.0,79,0.00,,,0.00,WUHU216HW,2013-09-04 17:52:00,
2013-09-04 10:57:00,70.5,63.2,29.63,WSW,248,0.0,0.0,78,0.00,,,0.00,WUHU216HW,2013-09-04 17:57:00,
2013-09-04 11:02:00,70.8,62.8,29.63,North,0,0.0,0.0,76,0.00,,,0.00,WUHU216HW,2013-09-04 18:02:00,
2013-09-04 11:07:00,71.2,62.8,29.63,NNE,23,0.0,0.0,76,0.00,,,0.00,WUHU216HW,2013-09-04 18:07:00,
2013-09-04 11:12:00,71.9,63.9,29.62,North,0,0.0,0.0,76,0.00,,,0.00,WUHU216HW,2013-09-04 18:12:00,
2013-09-04 11:17:00,73.0,64.6,29.63,South,180,0.0,0.0,75,0.00,,,0.00,WUHU216HW,2013-09-04 18:17:00,
2013-09-04 11:22:00,73.0,63.5,29.62,SSW,203,0.0,0.0,73,0.00,,,0.00,WUHU216HW,2013-09-04 18:22:00,
2013-09-04 11:27:00,73.2,64.0,29.62,North,0,0.0,0.0,73,0.00,,,0.00,WUHU216HW,2013-09-04 18:27:00,
2013-09-04 11:32:00,73.2,63.7,29.62,WNW,293,0.0,0.0,72,0.00,,,0.00,WUHU216HW,2013-09-04 18:32:00,
2013-09-04 11:37:00,73.7,64.2,29.62,SSW,203,0.0,0.0,72,0.00,,,0.00,WUHU216HW,2013-09-04 18:37:00,
2013-09-04 11:42:00,73.9,64.3,29.62,WNW,293,0.0,0.0,72,0.00,,,0.00,WUHU216HW,2013-09-04 18:42:00,
2013-09-04 11:47:00,73.2,63.7,29.62,West,270,0.0,0.0,72,0.00,,,0.00,WUHU216HW,2013-09-04 18:47:00,
2013-09-04 11:52:00,72.1,62.6,29.62,SSW,203,0.0,0.0,72,0.00,,,0.00,WUHU216HW,2013-09-04 18:52:00,
2013-09-04 11:57:00,71.9,62.8,29.62,WNW,293,0.0,0.0,73,0.00,,,0.00,WUHU216HW,2013-09-04 18:57:00,
2013-09-04 12:02:00,71.2,62.1,29.62,NNE,23,0.0,0.0,73,0.00,,,0.00,WUHU216HW,2013-09-04 19:02:00,
2013-09-04 12:07:00,71.2,62.8,29.62,NNE,23,0.0,0.0,75,0.00,,,0.00,WUHU216HW,2013-09-04 19:07:00,
2013-09-04 12:12:00,71.0,62.6,29.62,NNE,23,0.0,0.0,75,0.00,,,0.00,WUHU216HW,2013-09-04 19:12:00,
2013-09-04 12:17:00,70.7,62.3,29.62,North,0,0.0,0.0,75,0.00,,,0.00,WUHU216HW,2013-09-04 19:17:00,
2013-09-04 12:22:00,70.5,62.1,29.62,NW,315,0.0,0.0,75,0.00,,,0.00,WUHU216HW,2013-09-04 19:22:00,
2013-09-04 12:27:00,70.1,61.7,29.62,North,0,0.0,0.0,75,0.00,,,0.00,WUHU216HW,2013-09-04 19:27:00,
2013-09-04 12:32:00,69.9,61.9,29.63,West,270,0.0,0.0,76,0.00,,,0.00,WUHU216HW,2013-09-04 19:32:00,
2013-09-04 12:37:00,69.9,61.9,29.63,WNW,293,0.0,0.0,76,0.00,,,0.00,WUHU216HW,2013-09-04 19:37:00,
2013-09-04 12:42:00,69.9,61.9,29.63,NE,45,0.0,0.0,76,0.00,,,0.00,WUHU216HW,2013-09-04 19:42:00,
2013-09-04 12:47:00,69.9,61.9,29.63,North,0,0.0,0.0,76,0.00,,,0.00,WUHU216HW,2013-09-04 19:47:00,
2013-09-04 12:52:00,70.1,62.1,29.62,NNE,23,0.0,0.0,76,0.00,,,0.00,WUHU216HW,2013-09-04 19:52:00,
2013-09-04 12:57:00,70.1,62.1,29.63,NE,45,0.0,0.0,76,0.00,,,0.00,WUHU216HW,2013-09-04 19:57:00,
2013-09-04 13:02:00,70.3,62.3,29.63,NW,315,0.0,0.0,76,0.00,,,0.00,WUHU216HW,2013-09-04 20:02:00,
2013-09-04 13:07:00,69.9,61.9,29.63,NNW,338,0.0,0.0,76,0.00,,,0.00,WUHU216HW,2013-09-04 20:07:00,
2013-09-04 13:12:00,69.9,61.9,29.63,SSW,203,0.0,0.0,76,0.00,,,0.00,WUHU216HW,2013-09-04 20:12:00,
2013-09-04 13:17:00,69.0,60.7,29.64,SE,135,0.0,0.0,75,0.00,,,0.00,WUHU216HW,2013-09-04 20:17:00,
2013-09-04 13:22:00,68.7,61.1,29.64,NNE,23,0.0,0.0,77,0.00,,,0.00,WUHU216HW,2013-09-04 20:22:00,
2013-09-04 13:27:00,68.5,60.6,29.64,North,0,0.0,0.0,76,0.00,,,0.00,WUHU216HW,2013-09-04 20:27:00,
2013-09-04 13:32:00,68.3,60.8,29.64,NNE,23,0.0,0.0,77,0.00,,,0.00,WUHU216HW,2013-09-04 20:32:00,
2013-09-04 13:37:00,68.5,61.0,29.64,NNE,23,0.0,0.0,77,0.00,,,0.00,WUHU216HW,2013-09-04 20:37:00,
2013-09-04 13:42:00,68.5,60.6,29.63,South,180,0.0,0.0,76,0.00,,,0.00,WUHU216HW,2013-09-04 20:42:00,
2013-09-04 13:47:00,68.5,60.6,29.64,South,180,0.0,0.0,76,0.00,,,0.00,WUHU216HW,2013-09-04 20:47:00,
2013-09-04 13:52:00,68.1,60.7,29.64,ENE,68,0.0,0.0,77,0.00,,,0.00,WUHU216HW,2013-09-04 20:52:00,
2013-09-04 13:58:00,68.1,60.7,29.64,East,90,0.0,0.0,77,0.00,,,0.00,WUHU216HW,2013-09-04 20:58:00,
2013-09-04 14:03:00,68.0,60.5,29.64,SSE,158,0.0,0.0,77,0.00,,,0.00,WUHU216HW,2013-09-04 21:03:00,
2013-09-04 14:08:00,67.8,60.3,29.65,SSE,158,0.0,0.0,77,0.00,,,0.00,WUHU216HW,2013-09-04 21:08:00,
2013-09-04 14:13:00,67.6,60.5,29.64,SSE,158,0.0,0.0,78,0.00,,,0.00,WUHU216HW,2013-09-04 21:13:00,
2013-09-04 14:18:00,67.4,60.4,29.64,SSE,158,0.0,0.0,78,0.00,,,0.00,WUHU216HW,2013-09-04 21:18:00,
2013-09-04 14:23:00,66.9,59.8,29.65,ESE,113,0.0,0.0,78,0.00,,,0.00,WUHU216HW,2013-09-04 21:23:00,
2013-09-04 14:28:00,66.9,59.8,29.65,SE,135,0.0,0.0,78,0.00,,,0.00,WUHU216HW,2013-09-04 21:28:00,
2013-09-04 14:33:00,66.7,60.0,29.65,SE,135,0.0,0.0,79,0.00,,,0.00,WUHU216HW,2013-09-04 21:33:00,
2013-09-04 14:38:00,66.5,60.2,29.65,SE,135,0.0,0.0,80,0.00,,,0.00,WUHU216HW,2013-09-04 21:38:00,
2013-09-04 14:43:00,66.3,60.0,29.65,ESE,113,0.0,0.0,80,0.00,,,0.00,WUHU216HW,2013-09-04 21:43:00,
2013-09-04 14:48:00,66.2,59.9,29.65,ESE,113,0.0,0.0,80,0.00,,,0.00,WUHU216HW,2013-09-04 21:48:00,
2013-09-04 14:53:00,65.8,59.5,29.65,NNE,23,0.0,0.0,80,0.00,,,0.00,WUHU216HW,2013-09-04 21:53:00,
2013-09-04 14:58:00,65.8,59.5,29.65,West,270,0.0,0.0,80,0.00,,,0.00,WUHU216HW,2013-09-04 21:58:00,
2013-09-04 15:03:00,65.8,59.5,29.65,West,270,0.0,0.0,80,0.00,,,0.00,WUHU216HW,2013-09-04 22:03:00,
2013-09-04 15:08:00,65.6,59.3,29.65,SW,225,0.0,0.0,80,0.00,,,0.00,WUHU216HW,2013-09-04 22:08:00,
2013-09-04 15:13:00,65.4,59.5,29.65,SW,225,0.0,0.0,81,0.00,,,0.00,WUHU216HW,2013-09-04 22:13:00,
2013-09-04 15:18:00,65.4,59.5,29.65,SW,225,0.0,0.0,81,0.00,,,0.00,WUHU216HW,2013-09-04 22:18:00,
2013-09-04 15:23:00,65.4,59.5,29.64,SSW,203,0.0,0.0,81,0.00,,,0.00,WUHU216HW,2013-09-04 22:23:00,
2013-09-04 15:28:00,65.4,59.5,29.64,NW,315,0.0,0.0,81,0.00,,,0.00,WUHU216HW,2013-09-04 22:28:00,
2013-09-04 15:33:00,65.4,59.5,29.64,NW,315,0.0,0.0,81,0.00,,,0.00,WUHU216HW,2013-09-04 22:33:00,
2013-09-04 15:38:00,65.4,59.1,29.64,SSW,203,0.0,0.0,80,0.00,,,0.00,WUHU216HW,2013-09-04 22:38:00,
2013-09-04 15:43:00,65.4,59.1,29.65,SSW,203,0.0,0.0,80,0.00,,,0.00,WUHU216HW,2013-09-04 22:43:00,
2013-09-04 15:48:00,65.6,59.6,29.64,SSW,203,0.0,0.0,81,0.00,,,0.00,WUHU216HW,2013-09-04 22:48:00,
2013-09-04 15:53:00,65.4,59.1,29.64,SSW,203,0.0,0.0,80,0.00,,,0.00,WUHU216HW,2013-09-04 22:53:00,
2013-09-04 15:58:00,65.4,59.5,29.64,SSW,203,0.0,0.0,81,0.00,,,0.00,WUHU216HW,2013-09-04 22:58:00,
2013-09-04 16:03:00,65.3,59.3,29.64,West,270,0.0,0.0,81,0.00,,,0.00,WUHU216HW,2013-09-04 23:03:00,
2013-09-04 16:08:00,65.3,59.3,29.64,West,270,0.0,0.0,81,0.00,,,0.00,WUHU216HW,2013-09-04 23:08:00,
2013-09-04 16:13:00,65.3,59.3,29.64,West,270,0.0,0.0,81,0.00,,,0.00,WUHU216HW,2013-09-04 23:13:00,
2013-09-04 16:18:00,65.1,59.1,29.64,South,180,0.0,0.0,81,0.00,,,0.00,WUHU216HW,2013-09-04 23:18:00,
2013-09-04 16:23:00,65.1,59.4,29.64,South,180,0.0,0.0,82,0.00,,,0.00,WUHU216HW,2013-09-04 23:23:00,
2013-09-04 16:28:00,65.4,59.8,29.64,South,180,0.0,0.0,82,0.00,,,0.00,WUHU216HW,2013-09-04 23:28:00,
2013-09-04 16:33:00,65.1,59.4,29.64,NNE,23,0.0,0.0,82,0.00,,,0.00,WUHU216HW,2013-09-04 23:33:00,
2013-09-04 16:38:00,65.1,59.4,29.64,NNE,23,0.0,0.0,82,0.00,,,0.00,WUHU216HW,2013-09-04 23:38:00,
2013-09-04 16:43:00,65.1,59.4,29.64,NNE,23,0.0,0.0,82,0.00,,,0.00,WUHU216HW,2013-09-04 23:43:00,
2013-09-04 16:48:00,65.1,59.4,29.64,NNE,23,0.0,0.0,82,0.00,,,0.00,WUHU216HW,2013-09-04 23:48:00,
2013-09-04 16:53:00,64.9,59.6,29.64,NNE,23,0.0,0.0,83,0.00,,,0.00,WUHU216HW,2013-09-04 23:53:00,
2013-09-04 16:58:00,64.9,59.6,29.64,NNE,23,0.0,0.0,83,0.00,,,0.00,WUHU216HW,2013-09-04 23:58:00,
2013-09-04 17:03:00,64.9,59.6,29.64,NNE,23,0.0,0.0,83,0.00,,,0.00,WUHU216HW,2013-09-05 00:03:00,
2013-09-04 17:08:00,64.5,59.2,29.64,NNE,23,0.0,0.0,83,0.00,,,0.00,WUHU216HW,2013-09-05 00:08:00,
2013-09-04 17:13:00,64.5,59.2,29.64,NNE,23,0.0,0.0,83,0.00,,,0.00,WUHU216HW,2013-09-05 00:13:00,
2013-09-04 17:18:00,64.5,59.2,29.64,NNE,23,0.0,0.0,83,0.00,,,0.00,WUHU216HW,2013-09-05 00:18:00,
2013-09-04 17:23:00,64.5,59.2,29.64,NNE,23,0.0,0.0,83,0.00,,,0.00,WUHU216HW,2013-09-05 00:23:00,
2013-09-04 17:28:00,64.4,59.4,29.64,NNE,23,0.0,0.0,84,0.00,,,0.00,WUHU216HW,2013-09-05 00:28:00,
2013-09-04 17:33:00,64.2,59.2,29.64,NNE,23,0.0,0.0,84,0.00,,,0.00,WUHU216HW,2013-09-05 00:33:00,
2013-09-04 17:38:00,64.2,59.2,29.64,NNE,23,0.0,0.0,84,0.00,,,0.00,WUHU216HW,2013-09-05 00:38:00,
2013-09-04 17:43:00,64.0,59.1,29.64,NNE,23,0.0,0.0,84,0.00,,,0.00,WUHU216HW,2013-09-05 00:43:00,
2013-09-04 17:48:00,64.0,59.1,29.64,NNE,23,0.0,0.0,84,0.00,,,0.00,WUHU216HW,2013-09-05 00:48:00,
2013-09-04 17:53:00,63.8,59.2,29.64,NNE,23,0.0,0.0,85,0.00,,,0.00,WUHU216HW,2013-09-05 00:53:00,
2013-09-04 17:58:00,63.6,59.0,29.64,NNE,23,0.0,0.0,85,0.00,,,0.00,WUHU216HW,2013-09-05 00:58:00,
2013-09-04 18:03:00,63.6,59.0,29.64,NNE,23,0.0,0.0,85,0.00,,,0.00,WUHU216HW,2013-09-05 01:03:00,
2013-09-04 18:08:00,63.6,59.0,29.65,NNE,23,0.0,0.0,85,0.00,,,0.00,WUHU216HW,2013-09-05 01:08:00,
2013-09-04 18:13:00,63.5,58.9,29.65,NNE,23,0.0,0.0,85,0.00,,,0.00,WUHU216HW,2013-09-05 01:13:00,
2013-09-04 18:18:00,63.3,58.7,29.65,NW,315,0.0,0.0,85,0.00,,,0.00,WUHU216HW,2013-09-05 01:18:00,
2013-09-04 18:24:00,63.3,58.7,29.64,NW,315,0.0,0.0,85,0.00,,,0.00,WUHU216HW,2013-09-05 01:24:00,
2013-09-04 18:29:00,63.1,58.8,29.65,NW,315,0.0,0.0,86,0.00,,,0.00,WUHU216HW,2013-09-05 01:29:00,
2013-09-04 18:34:00,62.9,58.7,29.64,NW,315,0.0,0.0,86,0.00,,,0.00,WUHU216HW,2013-09-05 01:34:00,
2013-09-04 18:39:00,62.9,58.7,29.64,NW,315,0.0,0.0,86,0.00,,,0.00,WUHU216HW,2013-09-05 01:39:00,
2013-09-04 18:44:00,62.9,58.7,29.64,NW,315,0.0,0.0,86,0.00,,,0.00,WUHU216HW,2013-09-05 01:44:00,
2013-09-04 18:49:00,62.7,58.5,29.64,NW,315,0.0,0.0,86,0.00,,,0.00,WUHU216HW,2013-09-05 01:49:00,
2013-09-04 18:54:00,62.7,58.5,29.64,NW,315,0.0,0.0,86,0.00,,,0.00,WUHU216HW,2013-09-05 01:54:00,
2013-09-04 18:59:00,62.7,58.5,29.64,NW,315,0.0,0.0,86,0.00,,,0.00,WUHU216HW,2013-09-05 01:59:00,
2013-09-04 19:04:00,62.7,58.5,29.64,NW,315,0.0,0.0,86,0.00,,,0.00,WUHU216HW,2013-09-05 02:04:00,
2013-09-04 19:09:00,62.4,58.5,29.64,NW,315,0.0,0.0,87,0.00,,,0.00,WUHU216HW,2013-09-05 02:09:00,
2013-09-04 19:14:00,62.4,58.5,29.64,NW,315,0.0,0.0,87,0.00,,,0.00,WUHU216HW,2013-09-05 02:14:00,
2013-09-04 19:19:00,62.4,58.5,29.64,NW,315,0.0,0.0,87,0.00,,,0.00,WUHU216HW,2013-09-05 02:19:00,
2013-09-04 19:24:00,62.4,58.5,29.63,NW,315,0.0,0.0,87,0.00,,,0.00,WUHU216HW,2013-09-05 02:24:00,
2013-09-04 19:29:00,62.2,58.3,29.62,NW,315,0.0,0.0,87,0.00,,,0.00,WUHU216HW,2013-09-05 02:29:00,
2013-09-04 19:34:00,62.2,58.3,29.62,NW,315,0.0,0.0,87,0.00,,,0.00,WUHU216HW,2013-09-05 02:34:00,
2013-09-04 19:39:00,62.2,58.3,29.62,NW,315,0.0,0.0,87,0.00,,,0.00,WUHU216HW,2013-09-05 02:39:00,
2013-09-04 19:44:00,61.8,57.9,29.61,NW,315,0.0,0.0,87,0.00,,,0.00,WUHU216HW,2013-09-05 02:44:00,
2013-09-04 19:49:00,61.7,57.8,29.61,NW,315,0.0,0.0,87,0.00,,,0.00,WUHU216HW,2013-09-05 02:49:00,
2013-09-04 19:54:00,61.5,57.9,29.62,SW,225,0.0,0.0,88,0.00,,,0.00,WUHU216HW,2013-09-05 02:54:00,
2013-09-04 19:59:00,61.3,57.7,29.62,SW,225,0.0,0.0,88,0.00,,,0.00,WUHU216HW,2013-09-05 02:59:00,
2013-09-04 20:04:00,61.1,57.6,29.62,NW,315,0.0,0.0,88,0.00,,,0.00,WUHU216HW,2013-09-05 03:04:00,
2013-09-04 20:09:00,61.1,57.6,29.62,NW,315,0.0,0.0,88,0.00,,,0.00,WUHU216HW,2013-09-05 03:09:00,
2013-09-04 20:14:00,61.3,57.7,29.63,NW,315,0.0,0.0,88,0.00,,,0.00,WUHU216HW,2013-09-05 03:14:00,
2013-09-04 20:19:00,61.1,57.6,29.64,NW,315,0.0,0.0,88,0.00,,,0.00,WUHU216HW,2013-09-05 03:19:00,
2013-09-04 20:24:00,61.1,57.6,29.64,NW,315,0.0,0.0,88,0.00,,,0.00,WUHU216HW,2013-09-05 03:24:00,
2013-09-04 20:29:00,61.1,57.6,29.64,NW,315,0.0,0.0,88,0.00,,,0.00,WUHU216HW,2013-09-05 03:29:00,
2013-09-04 20:34:00,61.1,57.6,29.65,NW,315,0.0,0.0,88,0.00,,,0.00,WUHU216HW,2013-09-05 03:34:00,
2013-09-04 20:39:00,61.1,57.6,29.65,NW,315,0.0,0.0,88,0.00,,,0.00,WUHU216HW,2013-09-05 03:39:00,
2013-09-04 20:44:00,61.1,57.6,29.65,NW,315,0.0,0.0,88,0.00,,,0.00,WUHU216HW,2013-09-05 03:44:00,
2013-09-04 20:49:00,60.9,57.4,29.65,NW,315,0.0,0.0,88,0.00,,,0.00,WUHU216HW,2013-09-05 03:49:00,
2013-09-04 20:54:00,61.1,57.4,29.65,NW,315,0.0,0.0,88,0.00,,,0.00,WUHU216HW,2013-09-05 03:54:00,
2013-09-04 20:59:00,60.9,57.4,29.65,NW,315,0.0,0.0,88,0.00,,,0.00,WUHU216HW,2013-09-05 03:59:00,
2013-09-04 21:04:00,60.9,57.4,29.65,NW,315,0.0,0.0,88,0.00,,,0.00,WUHU216HW,2013-09-05 04:04:00,
2013-09-04 21:09:00,60.9,57.4,29.65,NW,315,0.0,0.0,88,0.00,,,0.00,WUHU216HW,2013-09-05 04:09:00,
2013-09-04 21:14:00,60.9,57.7,29.66,NW,315,0.0,0.0,89,0.00,,,0.00,WUHU216HW,2013-09-05 04:14:00,
2013-09-04 21:19:00,60.9,57.7,29.66,NW,315,0.0,0.0,89,0.00,,,0.00,WUHU216HW,2013-09-05 04:19:00,
2013-09-04 21:24:00,60.8,57.5,29.66,NW,315,0.0,0.0,89,0.00,,,0.00,WUHU216HW,2013-09-05 04:24:00,
2013-09-04 21:29:00,60.8,57.5,29.66,NW,315,0.0,0.0,89,0.00,,,0.00,WUHU216HW,2013-09-05 04:29:00,
2013-09-04 21:34:00,60.6,57.4,29.66,NW,315,0.0,0.0,89,0.00,,,0.00,WUHU216HW,2013-09-05 04:34:00,
2013-09-04 21:39:00,60.6,57.4,29.65,NW,315,0.0,0.0,89,0.00,,,0.00,WUHU216HW,2013-09-05 04:39:00,
2013-09-04 21:44:00,60.6,57.4,29.65,NW,315,0.0,0.0,89,0.00,,,0.00,WUHU216HW,2013-09-05 04:44:00,
2013-09-04 21:49:00,60.6,57.4,29.65,NW,315,0.0,0.0,89,0.00,,,0.00,WUHU216HW,2013-09-05 04:49:00,
2013-09-04 21:54:00,60.6,57.4,29.65,NW,315,0.0,0.0,89,0.00,,,0.00,WUHU216HW,2013-09-05 04:54:00,
2013-09-04 21:59:00,60.4,57.2,29.65,NW,315,0.0,0.0,89,0.00,,,0.00,WUHU216HW,2013-09-05 04:59:00,
2013-09-04 22:04:00,60.4,57.2,29.65,NW,315,0.0,0.0,89,0.00,,,0.00,WUHU216HW,2013-09-05 05:04:00,
2013-09-04 22:09:00,60.4,57.2,29.65,NW,315,0.0,0.0,89,0.00,,,0.00,WUHU216HW,2013-09-05 05:09:00,
2013-09-04 22:15:00,60.4,57.2,29.66,NW,315,0.0,0.0,89,0.00,,,0.00,WUHU216HW,2013-09-05 05:15:00,
2013-09-04 22:20:00,60.4,57.2,29.66,NW,315,0.0,0.0,89,0.00,,,0.00,WUHU216HW,2013-09-05 05:20:00,
2013-09-04 22:25:00,60.4,57.2,29.65,NW,315,0.0,0.0,89,0.00,,,0.00,WUHU216HW,2013-09-05 05:25:00,
2013-09-04 22:30:00,60.0,56.8,29.65,NW,315,0.0,0.0,89,0.00,,,0.00,WUHU216HW,2013-09-05 05:30:00,
2013-09-04 22:35:00,60.0,56.8,29.65,NW,315,0.0,0.0,89,0.00,,,0.00,WUHU216HW,2013-09-05 05:35:00,
2013-09-04 22:40:00,60.0,56.8,29.65,NW,315,0.0,0.0,89,0.00,,,0.00,WUHU216HW,2013-09-05 05:40:00,
2013-09-04 22:45:00,60.0,56.8,29.65,NW,315,0.0,0.0,89,0.00,,,0.00,WUHU216HW,2013-09-05 05:45:00,
2013-09-04 22:50:00,60.0,56.8,29.65,NW,315,0.0,0.0,89,0.00,,,0.00,WUHU216HW,2013-09-05 05:50:00,
2013-09-04 22:55:00,60.0,56.8,29.65,NW,315,0.0,0.0,89,0.00,,,0.00,WUHU216HW,2013-09-05 05:55:00,
2013-09-04 23:00:00,60.0,57.2,29.65,NW,315,0.0,0.0,90,0.00,,,0.00,WUHU216HW,2013-09-05 06:00:00,
2013-09-04 23:05:00,59.9,57.0,29.65,NW,315,0.0,0.0,90,0.00,,,0.00,WUHU216HW,2013-09-05 06:05:00,
2013-09-04 23:10:00,59.7,56.8,29.64,NW,315,0.0,0.0,90,0.00,,,0.00,WUHU216HW,2013-09-05 06:10:00,
2013-09-04 23:15:00,59.7,56.8,29.64,NW,315,0.0,0.0,90,0.00,,,0.00,WUHU216HW,2013-09-05 06:15:00,
2013-09-04 23:20:00,59.7,56.8,29.65,NW,315,0.0,0.0,90,0.00,,,0.00,WUHU216HW,2013-09-05 06:20:00,
2013-09-04 23:25:00,59.7,56.8,29.65,NW,315,0.0,0.0,90,0.00,,,0.00,WUHU216HW,2013-09-05 06:25:00,
2013-09-04 23:30:00,59.5,56.6,29.66,NW,315,0.0,0.0,90,0.00,,,0.00,WUHU216HW,2013-09-05 06:30:00,
2013-09-04 23:35:00,59.5,56.6,29.66,NW,315,0.0,0.0,90,0.00,,,0.00,WUHU216HW,2013-09-05 06:35:00,
2013-09-04 23:40:00,59.5,56.6,29.66,NW,315,0.0,0.0,90,0.00,,,0.00,WUHU216HW,2013-09-05 06:40:00,
2013-09-04 23:45:00,59.5,56.6,29.65,NW,315,0.0,0.0,90,0.00,,,0.00,WUHU216HW,2013-09-05 06:45:00,
2013-09-04 23:50:00,59.5,56.6,29.65,NW,315,0.0,0.0,90,0.00,,,0.00,WUHU216HW,2013-09-05 06:50:00,
2013-09-04 23:55:00,59.5,56.6,29.65,NW,315,0.0,0.0,90,0.00,,,0.00,WUHU216HW,2013-09-05 06:55:00,